aviador You're here:

KAFN Decoded Metar

JAFFREY in NH, USA
Report Time2017-11-23 19:52:00
UTC Time2017-11-23 20:09:48
Flight Rules vfr VFR
Wind340° at 04 kt
W.Decomp.*RWY 34: 3.9 kt HW 1.0 kt RCW
W.Rank340° ranks 17
Current wind is below 340° avg. (6.2)
Visibility9999 m
Phenomena:N/A
Clouds:N/A
Expected CloudBase > 4,400 ft AGL from Temp-Dew spread
CeilingNone
Temp02°C (ISA -11)
Dew Point-9°C (44% RH)
AAT-2.4°C
QNH1014 hPa
Density Alt-289 ft
Elevation1,027 ft
Report Wrong Elevation
Raw Report
KAFN 231952Z AUTO 34004KT 10SM CLR 02/M09 A2994 RMK AO2 SLP154
T00221089 TSNO=

Extra information for KAFN:More info

Metar Taf Metar & Taf Last 4 Metars F.Rules Stats Wind Profile Meteogram Temp Stats Airport Information Weather charts Add Link Nearby VenuesMetar ALERT Operation Metar Decoded Social comments

AIRNAV info for KAFN